Weather at Düsseldorf Airport

Public forecast

Using degrees Celsius for public forecast. Weather courtesy of forecast.io.

Current aviation weather report (METAR) for Düsseldorf Airport

2023/03/30 10:20 (retrieved 17 minutes ago)

EDDL 301020Z AUTO 23020KT 9999 FEW047 13/09 Q1008 TEMPO 24020G30KT

Aviation forecast (TAF) for Düsseldorf Airport

2023/03/30 06:27 (retrieved 4 hours ago)

TAF EDDL 300500Z 3006/3112 21012KT 9999 BKN040 BECMG 3006/3009 24015G25KT TEMPO 3008/3019 24020G35KT SHRA BKN025CB PROB30 TEMPO 3009/3016 4000 TSRA BECMG 3017/3020 18010KT PROB30 TEMPO 3103/3112 RA BECMG 3107/3110 20015G25KT